sensor_id;sensor_type;location;lat;lon;timestamp;pressure;altitude;pressure_sealevel;temperature;humidity
2178;BME280;1095;50.992;6.798;2023-01-25T00:01:02;102913.59;;;0.99;94.88
2178;BME280;1095;50.992;6.798;2023-01-25T00:03:29;102925.56;;;1.02;94.62
2178;BME280;1095;50.992;6.798;2023-01-25T00:05:59;102911.84;;;0.99;94.62
2178;BME280;1095;50.992;6.798;2023-01-25T00:08:26;102914.19;;;1.09;94.88
2178;BME280;1095;50.992;6.798;2023-01-25T00:10:52;102913.41;;;1.07;94.72
2178;BME280;1095;50.992;6.798;2023-01-25T00:13:19;102915.13;;;1.06;94.68
2178;BME280;1095;50.992;6.798;2023-01-25T00:15:47;102902.94;;;1.13;94.80
2178;BME280;1095;50.992;6.798;2023-01-25T00:18:14;102907.47;;;1.03;94.94
2178;BME280;1095;50.992;6.798;2023-01-25T00:20:40;102897.47;;;0.92;95.15
2178;BME280;1095;50.992;6.798;2023-01-25T00:23:07;102904.22;;;0.95;95.16
2178;BME280;1095;50.992;6.798;2023-01-25T00:25:33;102898.88;;;1.03;95.15
2178;BME280;1095;50.992;6.798;2023-01-25T00:28:00;102896.22;;;1.06;95.37
2178;BME280;1095;50.992;6.798;2023-01-25T00:30:27;102891.19;;;1.01;95.15
2178;BME280;1095;50.992;6.798;2023-01-25T00:33:01;102891.16;;;1.03;95.61
2178;BME280;1095;50.992;6.798;2023-01-25T00:35:30;102893.69;;;1.04;95.83
2178;BME280;1095;50.992;6.798;2023-01-25T00:38:00;102896.31;;;1.03;96.03
2178;BME280;1095;50.992;6.798;2023-01-25T00:40:27;102891.13;;;1.04;95.79
2178;BME280;1095;50.992;6.798;2023-01-25T00:42:53;102882.50;;;1.05;95.53
2178;BME280;1095;50.992;6.798;2023-01-25T00:45:20;102887.03;;;0.95;95.91
2178;BME280;1095;50.992;6.798;2023-01-25T00:47:47;102886.75;;;1.06;96.10
2178;BME280;1095;50.992;6.798;2023-01-25T00:50:15;102875.81;;;0.98;96.05
2178;BME280;1095;50.992;6.798;2023-01-25T00:52:42;102874.25;;;0.92;96.22
2178;BME280;1095;50.992;6.798;2023-01-25T00:55:08;102873.41;;;0.92;96.34
2178;BME280;1095;50.992;6.798;2023-01-25T00:57:35;102863.09;;;0.92;96.35
2178;BME280;1095;50.992;6.798;2023-01-25T01:00:03;102870.94;;;0.87;96.42
2178;BME280;1095;50.992;6.798;2023-01-25T01:02:29;102869.19;;;0.89;96.94
2178;BME280;1095;50.992;6.798;2023-01-25T01:04:56;102875.34;;;0.84;96.82
2178;BME280;1095;50.992;6.798;2023-01-25T01:07:24;102865.03;;;0.84;97.12
2178;BME280;1095;50.992;6.798;2023-01-25T01:09:51;102871.84;;;0.86;97.01
2178;BME280;1095;50.992;6.798;2023-01-25T01:12:17;102866.88;;;0.79;96.93
2178;BME280;1095;50.992;6.798;2023-01-25T01:14:44;102869.41;;;0.80;97.26
2178;BME280;1095;50.992;6.798;2023-01-25T01:17:10;102865.88;;;0.84;97.43
2178;BME280;1095;50.992;6.798;2023-01-25T01:19:37;102860.72;;;0.84;97.40
2178;BME280;1095;50.992;6.798;2023-01-25T01:22:04;102872.63;;;0.88;97.37
2178;BME280;1095;50.992;6.798;2023-01-25T01:24:32;102871.03;;;0.84;97.48
2178;BME280;1095;50.992;6.798;2023-01-25T01:26:58;102853.88;;;0.83;97.59
2178;BME280;1095;50.992;6.798;2023-01-25T01:29:25;102861.66;;;0.80;97.90
2178;BME280;1095;50.992;6.798;2023-01-25T01:31:52;102867.59;;;0.84;97.86
2178;BME280;1095;50.992;6.798;2023-01-25T01:34:19;102870.22;;;0.82;98.10
2178;BME280;1095;50.992;6.798;2023-01-25T01:36:45;102870.31;;;0.78;98.09
2178;BME280;1095;50.992;6.798;2023-01-25T01:39:12;102866.75;;;0.83;97.87
2178;BME280;1095;50.992;6.798;2023-01-25T01:41:40;102857.41;;;0.79;98.10
2178;BME280;1095;50.992;6.798;2023-01-25T01:44:13;102865.72;;;0.90;98.01
2178;BME280;1095;50.992;6.798;2023-01-25T01:46:44;102863.22;;;0.87;97.86
2178;BME280;1095;50.992;6.798;2023-01-25T01:49:15;102856.41;;;0.85;98.49
2178;BME280;1095;50.992;6.798;2023-01-25T01:51:45;102865.16;;;0.78;98.52
2178;BME280;1095;50.992;6.798;2023-01-25T01:54:15;102870.94;;;0.87;98.23
2178;BME280;1095;50.992;6.798;2023-01-25T01:56:49;102865.78;;;0.87;98.19
2178;BME280;1095;50.992;6.798;2023-01-25T01:59:18;102865.03;;;0.84;98.42
2178;BME280;1095;50.992;6.798;2023-01-25T02:01:46;102860.78;;;0.81;98.48
2178;BME280;1095;50.992;6.798;2023-01-25T02:04:13;102859.94;;;0.81;98.42
2178;BME280;1095;50.992;6.798;2023-01-25T02:06:46;102861.63;;;0.82;98.49
2178;BME280;1095;50.992;6.798;2023-01-25T02:09:15;102860.47;;;0.93;98.58
2178;BME280;1095;50.992;6.798;2023-01-25T02:11:43;102856.44;;;0.83;98.90
2178;BME280;1095;50.992;6.798;2023-01-25T02:14:13;102856.53;;;0.80;98.70
2178;BME280;1095;50.992;6.798;2023-01-25T02:16:41;102863.53;;;0.75;99.21
2178;BME280;1095;50.992;6.798;2023-01-25T02:19:11;102853.09;;;0.80;99.39
2178;BME280;1095;50.992;6.798;2023-01-25T02:21:43;102848.72;;;0.83;99.58
2178;BME280;1095;50.992;6.798;2023-01-25T02:24:14;102846.13;;;0.83;99.52
2178;BME280;1095;50.992;6.798;2023-01-25T02:26:44;102841.88;;;0.82;99.57
2178;BME280;1095;50.992;6.798;2023-01-25T02:29:11;102856.72;;;0.73;100.00
2178;BME280;1095;50.992;6.798;2023-01-25T02:31:38;102853.06;;;0.81;100.00
2178;BME280;1095;50.992;6.798;2023-01-25T02:34:05;102841.78;;;0.85;100.00
2178;BME280;1095;50.992;6.798;2023-01-25T02:36:33;102845.16;;;0.87;100.00
2178;BME280;1095;50.992;6.798;2023-01-25T02:39:02;102833.13;;;0.88;99.99
2178;BME280;1095;50.992;6.798;2023-01-25T02:41:32;102837.50;;;0.84;100.00
2178;BME280;1095;50.992;6.798;2023-01-25T02:44:02;102835.81;;;0.83;100.00
2178;BME280;1095;50.992;6.798;2023-01-25T02:46:31;102846.81;;;0.90;100.00
2178;BME280;1095;50.992;6.798;2023-01-25T02:48:59;102832.50;;;0.78;100.00
2178;BME280;1095;50.992;6.798;2023-01-25T02:51:28;102842.47;;;0.58;100.00
2178;BME280;1095;50.992;6.798;2023-01-25T02:53:56;102837.53;;;0.49;100.00
2178;BME280;1095;50.992;6.798;2023-01-25T02:56:23;102843.16;;;0.64;100.00
2178;BME280;1095;50.992;6.798;2023-01-25T02:58:50;102846.44;;;0.71;100.00
2178;BME280;1095;50.992;6.798;2023-01-25T03:01:18;102843.78;;;0.74;100.00
2178;BME280;1095;50.992;6.798;2023-01-25T03:03:45;102841.53;;;0.60;100.00
2178;BME280;1095;50.992;6.798;2023-01-25T03:06:12;102839.69;;;0.65;100.00
2178;BME280;1095;50.992;6.798;2023-01-25T03:08:38;102841.53;;;0.60;100.00
2178;BME280;1095;50.992;6.798;2023-01-25T03:11:06;102833.19;;;0.51;100.00
2178;BME280;1095;50.992;6.798;2023-01-25T03:13:33;102843.34;;;0.57;100.00
2178;BME280;1095;50.992;6.798;2023-01-25T03:16:02;102841.50;;;0.62;100.00
2178;BME280;1095;50.992;6.798;2023-01-25T03:18:30;102831.16;;;0.63;100.00
2178;BME280;1095;50.992;6.798;2023-01-25T03:21:03;102831.94;;;0.67;100.00
2178;BME280;1095;50.992;6.798;2023-01-25T03:23:30;102837.06;;;0.69;100.00
2178;BME280;1095;50.992;6.798;2023-01-25T03:26:04;102833.56;;;0.71;100.00
2178;BME280;1095;50.992;6.798;2023-01-25T03:28:31;102835.06;;;0.80;100.00
2178;BME280;1095;50.992;6.798;2023-01-25T03:30:57;102836.94;;;0.73;100.00
2178;BME280;1095;50.992;6.798;2023-01-25T03:33:24;102841.09;;;0.79;100.00
2178;BME280;1095;50.992;6.798;2023-01-25T03:35:52;102848.81;;;0.79;100.00
2178;BME280;1095;50.992;6.798;2023-01-25T03:38:19;102841.06;;;0.80;100.00
2178;BME280;1095;50.992;6.798;2023-01-25T03:40:46;102845.44;;;0.77;100.00
2178;BME280;1095;50.992;6.798;2023-01-25T03:43:13;102839.63;;;0.69;100.00
2178;BME280;1095;50.992;6.798;2023-01-25T03:45:40;102835.41;;;0.66;100.00
2178;BME280;1095;50.992;6.798;2023-01-25T03:48:07;102837.88;;;0.71;100.00
2178;BME280;1095;50.992;6.798;2023-01-25T03:50:34;102833.56;;;0.71;100.00
2178;BME280;1095;50.992;6.798;2023-01-25T03:53:16;102837.19;;;0.62;100.00
2178;BME280;1095;50.992;6.798;2023-01-25T03:55:52;102835.53;;;0.60;100.00
2178;BME280;1095;50.992;6.798;2023-01-25T03:58:19;102831.31;;;0.57;100.00
2178;BME280;1095;50.992;6.798;2023-01-25T04:00:46;102821.78;;;0.61;100.00
2178;BME280;1095;50.992;6.798;2023-01-25T04:03:12;102812.22;;;0.66;100.00
2178;BME280;1095;50.992;6.798;2023-01-25T04:05:40;102818.09;;;0.71;100.00
2178;BME280;1095;50.992;6.798;2023-01-25T04:08:08;102806.94;;;0.71;100.00
2178;BME280;1095;50.992;6.798;2023-01-25T04:10:35;102811.16;;;0.73;100.00
2178;BME280;1095;50.992;6.798;2023-01-25T04:13:01;102805.25;;;0.70;100.00
2178;BME280;1095;50.992;6.798;2023-01-25T04:15:28;102799.41;;;0.63;100.00
2178;BME280;1095;50.992;6.798;2023-01-25T04:17:55;102806.25;;;0.64;100.00
2178;BME280;1095;50.992;6.798;2023-01-25T04:20:21;102794.25;;;0.63;100.00
2178;BME280;1095;50.992;6.798;2023-01-25T04:22:48;102799.56;;;0.57;100.00
2178;BME280;1095;50.992;6.798;2023-01-25T04:25:16;102785.97;;;0.50;100.00
2178;BME280;1095;50.992;6.798;2023-01-25T04:27:43;102786.03;;;0.49;100.00
2178;BME280;1095;50.992;6.798;2023-01-25T04:30:10;102762.31;;;0.36;100.00
2178;BME280;1095;50.992;6.798;2023-01-25T04:32:37;102773.88;;;0.54;100.00
2178;BME280;1095;50.992;6.798;2023-01-25T04:35:04;102775.91;;;0.43;100.00
2178;BME280;1095;50.992;6.798;2023-01-25T04:37:31;102776.47;;;0.52;100.00
2178;BME280;1095;50.992;6.798;2023-01-25T04:39:57;102767.72;;;0.59;100.00
2178;BME280;1095;50.992;6.798;2023-01-25T04:42:25;102777.25;;;0.56;100.00
2178;BME280;1095;50.992;6.798;2023-01-25T04:44:52;102762.75;;;0.52;100.00
2178;BME280;1095;50.992;6.798;2023-01-25T04:47:18;102766.38;;;0.46;100.00
2178;BME280;1095;50.992;6.798;2023-01-25T04:49:45;102768.97;;;0.45;100.00
2178;BME280;1095;50.992;6.798;2023-01-25T04:52:12;102768.78;;;0.51;100.00
2178;BME280;1095;50.992;6.798;2023-01-25T04:54:38;102764.34;;;0.57;100.00
2178;BME280;1095;50.992;6.798;2023-01-25T04:57:05;102756.66;;;0.56;100.00
2178;BME280;1095;50.992;6.798;2023-01-25T04:59:33;102772.19;;;0.53;100.00
2178;BME280;1095;50.992;6.798;2023-01-25T05:02:09;102770.06;;;0.36;100.00
2178;BME280;1095;50.992;6.798;2023-01-25T05:04:35;102767.50;;;0.35;100.00
2178;BME280;1095;50.992;6.798;2023-01-25T05:07:02;102760.44;;;0.43;100.00
2178;BME280;1095;50.992;6.798;2023-01-25T05:09:29;102761.38;;;0.40;100.00
2178;BME280;1095;50.992;6.798;2023-01-25T05:11:55;102762.22;;;0.41;100.00
2178;BME280;1095;50.992;6.798;2023-01-25T05:14:22;102757.88;;;0.43;100.00
2178;BME280;1095;50.992;6.798;2023-01-25T05:16:50;102757.00;;;0.44;100.00
2178;BME280;1095;50.992;6.798;2023-01-25T05:19:16;102754.34;;;0.47;100.00
2178;BME280;1095;50.992;6.798;2023-01-25T05:21:43;102753.41;;;0.48;100.00
2178;BME280;1095;50.992;6.798;2023-01-25T05:24:25;102754.06;;;0.56;100.00
2178;BME280;1095;50.992;6.798;2023-01-25T05:26:55;102742.09;;;0.53;100.00
2178;BME280;1095;50.992;6.798;2023-01-25T05:29:29;102738.50;;;0.60;100.00
2178;BME280;1095;50.992;6.798;2023-01-25T05:31:58;102743.41;;;0.70;100.00
2178;BME280;1095;50.992;6.798;2023-01-25T05:34:24;102745.94;;;0.71;100.00
2178;BME280;1095;50.992;6.798;2023-01-25T05:36:51;102738.22;;;0.71;100.00
2178;BME280;1095;50.992;6.798;2023-01-25T05:39:18;102736.56;;;0.69;100.00
2178;BME280;1095;50.992;6.798;2023-01-25T05:41:47;102736.63;;;0.65;100.00
2178;BME280;1095;50.992;6.798;2023-01-25T05:44:14;102736.13;;;0.53;100.00
2178;BME280;1095;50.992;6.798;2023-01-25T05:46:41;102737.72;;;0.57;100.00
2178;BME280;1095;50.992;6.798;2023-01-25T05:51:42;102745.06;;;0.40;100.00
2178;BME280;1095;50.992;6.798;2023-01-25T05:54:12;102740.81;;;0.39;100.00
2178;BME280;1095;50.992;6.798;2023-01-25T05:56:39;102740.53;;;0.48;100.00
2178;BME280;1095;50.992;6.798;2023-01-25T05:59:05;102735.34;;;0.49;100.00
2178;BME280;1095;50.992;6.798;2023-01-25T06:01:32;102728.78;;;0.39;100.00
2178;BME280;1095;50.992;6.798;2023-01-25T06:03:59;102731.72;;;0.56;100.00
2178;BME280;1095;50.992;6.798;2023-01-25T06:06:26;102739.75;;;0.46;100.00
2178;BME280;1095;50.992;6.798;2023-01-25T06:08:54;102741.44;;;0.47;100.00
2178;BME280;1095;50.992;6.798;2023-01-25T06:11:22;102732.78;;;0.49;100.00
2178;BME280;1095;50.992;6.798;2023-01-25T06:13:49;102737.88;;;0.51;100.00
2178;BME280;1095;50.992;6.798;2023-01-25T06:16:16;102735.13;;;0.58;100.00
2178;BME280;1095;50.992;6.798;2023-01-25T06:18:43;102731.53;;;0.31;100.00
2178;BME280;1095;50.992;6.798;2023-01-25T06:21:10;102739.84;;;0.43;100.00
2178;BME280;1095;50.992;6.798;2023-01-25T06:23:37;102724.38;;;0.43;100.00
2178;BME280;1095;50.992;6.798;2023-01-25T06:26:07;102729.19;;;0.55;100.00
2178;BME280;1095;50.992;6.798;2023-01-25T06:28:35;102731.09;;;0.48;100.00
2178;BME280;1095;50.992;6.798;2023-01-25T06:31:05;102738.91;;;0.45;100.00
2178;BME280;1095;50.992;6.798;2023-01-25T06:33:33;102726.72;;;0.50;100.00
2178;BME280;1095;50.992;6.798;2023-01-25T06:36:01;102722.38;;;0.52;100.00
2178;BME280;1095;50.992;6.798;2023-01-25T06:38:27;102724.03;;;0.55;100.00
2178;BME280;1095;50.992;6.798;2023-01-25T06:40:58;102727.59;;;0.51;100.00
2178;BME280;1095;50.992;6.798;2023-01-25T06:43:28;102733.50;;;0.54;100.00
2178;BME280;1095;50.992;6.798;2023-01-25T06:45:59;102724.81;;;0.58;100.00
2178;BME280;1095;50.992;6.798;2023-01-25T06:48:26;102725.84;;;0.51;100.00
2178;BME280;1095;50.992;6.798;2023-01-25T06:50:55;102729.81;;;0.64;100.00
2178;BME280;1095;50.992;6.798;2023-01-25T06:53:24;102731.19;;;0.45;100.00
2178;BME280;1095;50.992;6.798;2023-01-25T06:55:56;102734.75;;;0.40;100.00
2178;BME280;1095;50.992;6.798;2023-01-25T06:58:22;102734.00;;;0.36;100.00
2178;BME280;1095;50.992;6.798;2023-01-25T07:00:50;102728.00;;;0.36;100.00
2178;BME280;1095;50.992;6.798;2023-01-25T07:03:17;102727.94;;;0.39;100.00
2178;BME280;1095;50.992;6.798;2023-01-25T07:05:43;102731.31;;;0.41;100.00
2178;BME280;1095;50.992;6.798;2023-01-25T07:08:10;102734.75;;;0.40;100.00
2178;BME280;1095;50.992;6.798;2023-01-25T07:10:37;102735.47;;;0.46;100.00
2178;BME280;1095;50.992;6.798;2023-01-25T07:13:04;102735.38;;;0.48;100.00
2178;BME280;1095;50.992;6.798;2023-01-25T07:15:30;102730.13;;;0.52;100.00
2178;BME280;1095;50.992;6.798;2023-01-25T07:17:58;102736.47;;;0.41;100.00
2178;BME280;1095;50.992;6.798;2023-01-25T07:20:25;102731.38;;;0.38;100.00
2178;BME280;1095;50.992;6.798;2023-01-25T07:22:51;102747.50;;;0.46;100.00
2178;BME280;1095;50.992;6.798;2023-01-25T07:25:18;102736.63;;;0.35;100.00
2178;BME280;1095;50.992;6.798;2023-01-25T07:27:45;102745.94;;;0.39;100.00
2178;BME280;1095;50.992;6.798;2023-01-25T07:30:12;102740.91;;;0.34;100.00
2178;BME280;1095;50.992;6.798;2023-01-25T07:32:49;102729.03;;;0.28;100.00
2178;BME280;1095;50.992;6.798;2023-01-25T07:35:27;102741.72;;;0.36;100.00
2178;BME280;1095;50.992;6.798;2023-01-25T07:37:59;102735.63;;;0.40;100.00
2178;BME280;1095;50.992;6.798;2023-01-25T07:40:26;102743.31;;;0.42;100.00
2178;BME280;1095;50.992;6.798;2023-01-25T07:42:53;102741.59;;;0.41;100.00
2178;BME280;1095;50.992;6.798;2023-01-25T07:45:20;102728.97;;;0.31;100.00
2178;BME280;1095;50.992;6.798;2023-01-25T07:47:52;102741.84;;;0.31;100.00
2178;BME280;1095;50.992;6.798;2023-01-25T07:50:20;102740.00;;;0.37;100.00
2178;BME280;1095;50.992;6.798;2023-01-25T07:52:47;102737.41;;;0.37;100.00
2178;BME280;1095;50.992;6.798;2023-01-25T07:55:14;102738.31;;;0.36;100.00
2178;BME280;1095;50.992;6.798;2023-01-25T07:57:40;102735.22;;;0.21;100.00
2178;BME280;1095;50.992;6.798;2023-01-25T08:00:08;102729.19;;;0.22;100.00
2178;BME280;1095;50.992;6.798;2023-01-25T08:02:36;102736.84;;;0.25;100.00
2178;BME280;1095;50.992;6.798;2023-01-25T08:05:03;102731.47;;;0.35;100.00
2178;BME280;1095;50.992;6.798;2023-01-25T08:07:32;102718.63;;;0.33;100.00
2178;BME280;1095;50.992;6.798;2023-01-25T08:09:58;102719.34;;;0.38;100.00
2178;BME280;1095;50.992;6.798;2023-01-25T08:12:25;102723.31;;;0.50;100.00
2178;BME280;1095;50.992;6.798;2023-01-25T08:14:53;102727.50;;;0.54;100.00
2178;BME280;1095;50.992;6.798;2023-01-25T08:17:19;102728.31;;;0.56;100.00
2178;BME280;1095;50.992;6.798;2023-01-25T08:19:46;102733.63;;;0.50;100.00
2178;BME280;1095;50.992;6.798;2023-01-25T08:22:12;102733.34;;;0.60;100.00
2178;BME280;1095;50.992;6.798;2023-01-25T08:24:40;102729.13;;;0.58;100.00
2178;BME280;1095;50.992;6.798;2023-01-25T08:27:07;102724.75;;;0.60;100.00
2178;BME280;1095;50.992;6.798;2023-01-25T08:29:34;102721.34;;;0.59;100.00
2178;BME280;1095;50.992;6.798;2023-01-25T08:32:00;102729.03;;;0.61;100.00
2178;BME280;1095;50.992;6.798;2023-01-25T08:34:28;102722.19;;;0.60;100.00
2178;BME280;1095;50.992;6.798;2023-01-25T08:36:56;102715.34;;;0.59;100.00
2178;BME280;1095;50.992;6.798;2023-01-25T08:39:23;102706.00;;;0.55;100.00
2178;BME280;1095;50.992;6.798;2023-01-25T08:41:51;102717.72;;;0.66;100.00
2178;BME280;1095;50.992;6.798;2023-01-25T08:44:17;102710.91;;;0.64;100.00
2178;BME280;1095;50.992;6.798;2023-01-25T08:46:46;102704.97;;;0.62;100.00
2178;BME280;1095;50.992;6.798;2023-01-25T08:49:13;102711.72;;;0.66;100.00
2178;BME280;1095;50.992;6.798;2023-01-25T08:51:40;102708.50;;;0.58;100.00
2178;BME280;1095;50.992;6.798;2023-01-25T08:54:09;102706.81;;;0.57;100.00
2178;BME280;1095;50.992;6.798;2023-01-25T08:56:36;102706.66;;;0.63;100.00
2178;BME280;1095;50.992;6.798;2023-01-25T08:59:04;102712.22;;;0.48;100.00
2178;BME280;1095;50.992;6.798;2023-01-25T09:01:31;102708.47;;;0.27;100.00
2178;BME280;1095;50.992;6.798;2023-01-25T09:03:58;102709.00;;;0.40;100.00
2178;BME280;1095;50.992;6.798;2023-01-25T09:06:26;102710.34;;;0.53;100.00
2178;BME280;1095;50.992;6.798;2023-01-25T09:08:52;102710.22;;;0.57;100.00
2178;BME280;1095;50.992;6.798;2023-01-25T09:11:20;102703.44;;;0.55;100.00
2178;BME280;1095;50.992;6.798;2023-01-25T09:13:47;102705.41;;;0.47;100.00
2178;BME280;1095;50.992;6.798;2023-01-25T09:16:17;102695.94;;;0.47;100.00
2178;BME280;1095;50.992;6.798;2023-01-25T09:18:46;102703.31;;;0.59;100.00
2178;BME280;1095;50.992;6.798;2023-01-25T09:21:15;102709.19;;;0.64;100.00
2178;BME280;1095;50.992;6.798;2023-01-25T09:23:42;102704.13;;;0.61;100.00
2178;BME280;1095;50.992;6.798;2023-01-25T09:26:10;102707.69;;;0.56;100.00
2178;BME280;1095;50.992;6.798;2023-01-25T09:28:40;102704.78;;;0.68;100.00
2178;BME280;1095;50.992;6.798;2023-01-25T09:31:08;102696.84;;;0.76;100.00
2178;BME280;1095;50.992;6.798;2023-01-25T09:33:38;102693.41;;;0.77;100.00
2178;BME280;1095;50.992;6.798;2023-01-25T09:36:06;102694.25;;;0.77;100.00
2178;BME280;1095;50.992;6.798;2023-01-25T09:38:33;102691.72;;;0.76;100.00
2178;BME280;1095;50.992;6.798;2023-01-25T09:41:21;102690.78;;;0.78;100.00
2178;BME280;1095;50.992;6.798;2023-01-25T09:44:06;102681.22;;;0.82;100.00
2178;BME280;1095;50.992;6.798;2023-01-25T09:46:39;102681.31;;;0.79;100.00
2178;BME280;1095;50.992;6.798;2023-01-25T09:49:20;102671.09;;;0.76;100.00
2178;BME280;1095;50.992;6.798;2023-01-25T09:52:02;102669.31;;;0.78;100.00
2178;BME280;1095;50.992;6.798;2023-01-25T09:54:36;102666.78;;;0.76;100.00
2178;BME280;1095;50.992;6.798;2023-01-25T09:57:03;102661.19;;;0.60;100.00
2178;BME280;1095;50.992;6.798;2023-01-25T09:59:30;102663.56;;;0.68;100.00
2178;BME280;1095;50.992;6.798;2023-01-25T10:02:00;102660.09;;;0.69;100.00
2178;BME280;1095;50.992;6.798;2023-01-25T10:04:35;102658.41;;;0.68;100.00
2178;BME280;1095;50.992;6.798;2023-01-25T10:07:11;102656.81;;;0.64;100.00
2178;BME280;1095;50.992;6.798;2023-01-25T10:09:48;102655.78;;;0.70;100.00
2178;BME280;1095;50.992;6.798;2023-01-25T10:12:19;102654.81;;;0.74;100.00
2178;BME280;1095;50.992;6.798;2023-01-25T10:14:47;102656.56;;;0.73;100.00
2178;BME280;1095;50.992;6.798;2023-01-25T10:17:21;102657.31;;;0.77;100.00
2178;BME280;1095;50.992;6.798;2023-01-25T10:20:02;102655.63;;;0.76;100.00
2178;BME280;1095;50.992;6.798;2023-01-25T10:22:34;102652.16;;;0.77;100.00
2178;BME280;1095;50.992;6.798;2023-01-25T10:28:05;102652.91;;;0.80;100.00
2178;BME280;1095;50.992;6.798;2023-01-25T10:30:38;102639.31;;;0.75;100.00
2178;BME280;1095;50.992;6.798;2023-01-25T10:33:10;102638.47;;;0.75;100.00
2178;BME280;1095;50.992;6.798;2023-01-25T10:35:43;102623.69;;;0.81;100.00
2178;BME280;1095;50.992;6.798;2023-01-25T10:38:15;102629.91;;;0.74;100.00
2178;BME280;1095;50.992;6.798;2023-01-25T10:40:48;102634.59;;;0.60;100.00
2178;BME280;1095;50.992;6.798;2023-01-25T10:43:19;102619.91;;;0.63;100.00
2178;BME280;1095;50.992;6.798;2023-01-25T10:45:47;102622.59;;;0.59;100.00
2178;BME280;1095;50.992;6.798;2023-01-25T10:48:17;102615.16;;;0.48;100.00
2178;BME280;1095;50.992;6.798;2023-01-25T10:50:52;102617.53;;;0.56;100.00
2178;BME280;1095;50.992;6.798;2023-01-25T10:53:28;102614.66;;;0.66;100.00
2178;BME280;1095;50.992;6.798;2023-01-25T10:55:59;102603.19;;;0.77;100.00
2178;BME280;1095;50.992;6.798;2023-01-25T10:58:34;102601.47;;;0.77;100.00
2178;BME280;1095;50.992;6.798;2023-01-25T11:01:01;102605.91;;;0.72;100.00
2178;BME280;1095;50.992;6.798;2023-01-25T11:03:36;102599.41;;;0.59;100.00
2178;BME280;1095;50.992;6.798;2023-01-25T11:06:06;102596.50;;;0.71;100.00
2178;BME280;1095;50.992;6.798;2023-01-25T11:08:35;102587.59;;;0.81;100.00
2178;BME280;1095;50.992;6.798;2023-01-25T11:11:23;102591.97;;;0.79;100.00
2178;BME280;1095;50.992;6.798;2023-01-25T11:13:50;102588.22;;;0.89;100.00
2178;BME280;1095;50.992;6.798;2023-01-25T11:16:29;102588.09;;;0.94;100.00
2178;BME280;1095;50.992;6.798;2023-01-25T11:18:58;102576.06;;;0.65;100.00
2178;BME280;1095;50.992;6.798;2023-01-25T11:21:29;102578.75;;;0.60;100.00
2178;BME280;1095;50.992;6.798;2023-01-25T11:24:01;102579.09;;;0.48;100.00
2178;BME280;1095;50.992;6.798;2023-01-25T11:26:29;102571.00;;;0.62;100.00
2178;BME280;1095;50.992;6.798;2023-01-25T11:29:10;102579.28;;;0.44;100.00
2178;BME280;1095;50.992;6.798;2023-01-25T11:31:37;102576.50;;;0.50;100.00
2178;BME280;1095;50.992;6.798;2023-01-25T11:34:08;102569.47;;;0.55;100.00
2178;BME280;1095;50.992;6.798;2023-01-25T11:36:43;102568.72;;;0.51;100.00
2178;BME280;1095;50.992;6.798;2023-01-25T11:39:23;102556.84;;;0.47;100.00
2178;BME280;1095;50.992;6.798;2023-01-25T11:42:03;102548.78;;;0.58;100.00
2178;BME280;1095;50.992;6.798;2023-01-25T11:44:58;102543.63;;;0.58;100.00
2178;BME280;1095;50.992;6.798;2023-01-25T11:47:42;102537.53;;;0.60;100.00
2178;BME280;1095;50.992;6.798;2023-01-25T11:50:15;102529.50;;;0.71;100.00
2178;BME280;1095;50.992;6.798;2023-01-25T11:53:14;102515.81;;;0.69;100.00
2178;BME280;1095;50.992;6.798;2023-01-25T11:55:50;102508.88;;;0.71;100.00
2178;BME280;1095;50.992;6.798;2023-01-25T11:58:33;102510.00;;;0.62;100.00
2178;BME280;1095;50.992;6.798;2023-01-25T12:01:11;102505.34;;;0.47;100.00
2178;BME280;1095;50.992;6.798;2023-01-25T12:04:14;102485.09;;;0.35;100.00
2178;BME280;1095;50.992;6.798;2023-01-25T12:06:56;102485.53;;;0.48;100.00
2178;BME280;1095;50.992;6.798;2023-01-25T12:09:48;102459.47;;;0.58;100.00
2178;BME280;1095;50.992;6.798;2023-01-25T12:12:26;102463.28;;;0.47;100.00
2178;BME280;1095;50.992;6.798;2023-01-25T12:21:02;102466.13;;;0.65;100.00
2178;BME280;1095;50.992;6.798;2023-01-25T12:23:39;102455.94;;;0.61;100.00
2178;BME280;1095;50.992;6.798;2023-01-25T12:26:19;102445.31;;;0.72;100.00
2178;BME280;1095;50.992;6.798;2023-01-25T12:28:52;102440.00;;;0.76;100.00
2178;BME280;1095;50.992;6.798;2023-01-25T12:31:22;102433.13;;;0.77;100.00
2178;BME280;1095;50.992;6.798;2023-01-25T12:33:55;102427.19;;;0.75;100.00
2178;BME280;1095;50.992;6.798;2023-01-25T12:36:26;102419.50;;;0.73;100.00
2178;BME280;1095;50.992;6.798;2023-01-25T12:38:57;102413.44;;;0.74;100.00
2178;BME280;1095;50.992;6.798;2023-01-25T12:41:37;102410.88;;;0.74;100.00
2178;BME280;1095;50.992;6.798;2023-01-25T12:44:13;102407.50;;;0.72;100.00
2178;BME280;1095;50.992;6.798;2023-01-25T12:46:46;102400.38;;;0.80;100.00
2178;BME280;1095;50.992;6.798;2023-01-25T12:49:19;102394.94;;;0.89;100.00
2178;BME280;1095;50.992;6.798;2023-01-25T12:51:49;102392.50;;;0.85;100.00
2178;BME280;1095;50.992;6.798;2023-01-25T12:54:22;102387.00;;;0.69;100.00
2178;BME280;1095;50.992;6.798;2023-01-25T12:56:59;102378.63;;;0.62;100.00
2178;BME280;1095;50.992;6.798;2023-01-25T12:59:34;102374.75;;;0.76;100.00
2178;BME280;1095;50.992;6.798;2023-01-25T13:02:30;102370.97;;;0.86;100.00
2178;BME280;1095;50.992;6.798;2023-01-25T13:05:02;102366.47;;;0.92;100.00
2178;BME280;1095;50.992;6.798;2023-01-25T13:07:43;102359.03;;;0.83;100.00
2178;BME280;1095;50.992;6.798;2023-01-25T13:10:22;102340.81;;;0.89;100.00
2178;BME280;1095;50.992;6.798;2023-01-25T13:12:54;102335.59;;;0.91;100.00
2178;BME280;1095;50.992;6.798;2023-01-25T13:15:37;102326.03;;;0.94;100.00
2178;BME280;1095;50.992;6.798;2023-01-25T13:21:38;102315.78;;;0.42;100.00
2178;BME280;1095;50.992;6.798;2023-01-25T13:24:16;102309.84;;;0.40;100.00
2178;BME280;1095;50.992;6.798;2023-01-25T13:27:02;102309.00;;;0.39;100.00
2178;BME280;1095;50.992;6.798;2023-01-25T13:29:58;102309.97;;;0.35;100.00
2178;BME280;1095;50.992;6.798;2023-01-25T13:35:47;102283.50;;;0.31;100.00
2178;BME280;1095;50.992;6.798;2023-01-25T13:38:32;102297.34;;;0.27;100.00
2178;BME280;1095;50.992;6.798;2023-01-25T13:41:18;102296.16;;;0.38;100.00
2178;BME280;1095;50.992;6.798;2023-01-25T13:44:07;102290.88;;;0.42;100.00
2178;BME280;1095;50.992;6.798;2023-01-25T13:46:40;102288.91;;;0.49;100.00